Time;durP1;ratioP1;P1;durP2;ratioP2;P2;SDS_P1;SDS_P2;PMS_P1;PMS_P2;Temp;Humidity;BMP_temperature;BMP_pressure;BME280_temperature;BME280_humidity;BME280_pressure;Samples;Min_cycle;Max_cycle;Signal;HPM_P1;HPM_P2
2022/05/28 00:00:22;;;;;;;7.82;1.45;;;;;;;11.52;54.47;100550.50;5027066;28;20133;-78
2022/05/28 00:02:48;;;;;;;9.25;1.58;;;;;;;11.49;54.90;100526.75;5031827;28;20044;-78
2022/05/28 00:05:14;;;;;;;11.52;1.80;;;;;;;11.44;55.03;100525.91;5027299;28;20029;-78
2022/05/28 00:07:40;;;;;;;7.38;1.30;;;;;;;11.44;54.99;100521.50;5029586;28;20059;-79
2022/05/28 00:10:08;;;;;;;9.40;1.20;;;;;;;11.36;55.20;100521.56;5029973;28;20504;-78
2022/05/28 00:12:33;;;;;;;6.45;1.38;;;;;;;11.35;55.20;100522.47;5027640;28;20491;-78
2022/05/28 00:14:58;;;;;;;7.25;1.48;;;;;;;11.30;55.34;100524.28;5030480;28;20045;-78
2022/05/28 00:17:24;;;;;;;7.13;1.38;;;;;;;11.38;55.21;100518.91;5027972;28;20045;-78
2022/05/28 00:19:51;;;;;;;8.18;1.20;;;;;;;11.36;54.90;100524.22;5010698;28;20076;-78
2022/05/28 00:22:17;;;;;;;9.88;2.08;;;;;;;11.41;55.28;100521.53;5030085;28;20067;-79
2022/05/28 00:24:42;;;;;;;7.00;1.55;;;;;;;11.39;55.37;100512.72;5028875;28;20042;-78
2022/05/28 00:27:07;;;;;;;6.72;1.45;;;;;;;11.33;54.97;100512.81;5031294;28;20124;-79
2022/05/28 00:29:34;;;;;;;9.23;2.13;;;;;;;11.31;55.44;100504.88;5029737;28;20034;-79
2022/05/28 00:31:59;;;;;;;9.32;1.40;;;;;;;11.30;55.39;100500.50;5032172;28;20034;-79
2022/05/28 00:34:26;;;;;;;12.57;1.77;;;;;;;11.26;55.51;100508.47;5029076;28;20382;-78
2022/05/28 00:36:51;;;;;;;10.43;2.13;;;;;;;11.29;55.18;100511.06;5030646;28;20097;-79
2022/05/28 00:39:16;;;;;;;8.38;1.20;;;;;;;11.31;56.04;100509.28;5025128;28;20061;-79
2022/05/28 00:41:42;;;;;;;7.22;1.52;;;;;;;11.30;55.37;100503.13;5044787;28;20037;-78
2022/05/28 00:44:07;;;;;;;6.32;1.90;;;;;;;11.38;55.42;100505.72;5027641;28;20063;-78
2022/05/28 00:46:33;;;;;;;9.02;1.20;;;;;;;11.41;55.20;100501.25;5031130;28;20037;-78
2022/05/28 00:49:05;;;;;;;7.25;1.20;;;;;;;11.47;55.02;100500.31;5030652;28;20056;-78
2022/05/28 00:51:34;;;;;;;11.32;2.03;;;;;;;11.50;55.27;100505.59;5028250;28;20048;-79
2022/05/28 00:54:03;;;;;;;8.07;1.55;;;;;;;11.50;54.59;100505.59;5030689;28;20037;-78
2022/05/28 00:56:29;;;;;;;8.25;1.52;;;;;;;11.49;55.34;100502.94;5027938;28;20045;-78
2022/05/28 00:58:55;;;;;;;5.35;1.10;;;;;;;11.43;54.84;100498.63;5027290;28;20049;-78
2022/05/28 01:01:24;;;;;;;8.25;1.15;;;;;;;11.49;54.76;100495.91;5030378;28;20080;-78
2022/05/28 01:04:05;;;;;;;7.57;1.50;;;;;;;11.45;54.98;100501.22;5031006;28;20034;-78
2022/05/28 01:06:36;;;;;;;7.15;1.42;;;;;;;11.46;54.75;100485.34;5033322;28;20046;-78
2022/05/28 01:09:08;;;;;;;5.43;1.05;;;;;;;11.50;54.80;100491.47;5031415;28;20041;-78
2022/05/28 01:11:55;;;;;;;9.38;1.60;;;;;;;11.48;54.86;100491.50;5032918;28;20106;-78
2022/05/28 01:14:29;;;;;;;5.82;2.08;;;;;;;11.51;54.56;100495.88;5034069;28;20587;-78
2022/05/28 01:17:00;;;;;;;6.88;1.40;;;;;;;11.50;54.24;100495.03;5031842;28;20033;-78
2022/05/28 01:19:50;;;;;;;12.18;1.85;;;;;;;11.58;54.29;100486.97;5031438;28;20038;-78
2022/05/28 01:22:30;;;;;;;9.95;2.05;;;;;;;11.56;54.52;100489.66;5033692;28;20045;-78
2022/05/28 01:25:18;;;;;;;4.93;1.15;;;;;;;11.58;54.56;100502.84;5030926;28;20103;-79
2022/05/28 01:27:55;;;;;;;6.05;1.40;;;;;;;11.54;54.84;100506.44;5031127;28;20088;-78
2022/05/28 01:30:20;;;;;;;8.18;1.40;;;;;;;11.36;55.97;100534.78;5027651;28;20042;-78
2022/05/28 01:32:50;;;;;;;7.38;1.67;;;;;;;11.13;57.16;100535.00;5033187;28;20121;-78
2022/05/28 01:35:17;;;;;;;4.68;1.30;;;;;;;11.02;58.12;100543.88;5031890;28;20041;-79
2022/05/28 01:37:44;;;;;;;7.32;1.30;;;;;;;10.78;61.08;100551.09;5028066;28;20041;-77
2022/05/28 01:40:12;;;;;;;3.08;0.65;;;;;;;10.66;62.43;100540.59;5033935;28;20038;-78
2022/05/28 01:42:42;;;;;;;7.53;1.00;;;;;;;10.64;62.27;100538.00;5029684;28;20125;-78
2022/05/28 01:45:10;;;;;;;4.40;0.90;;;;;;;10.62;62.98;100538.88;5031615;28;20037;-78
2022/05/28 01:47:36;;;;;;;6.15;1.45;;;;;;;10.56;63.59;100528.34;5028065;28;20052;-78
2022/05/28 01:50:05;;;;;;;4.45;1.40;;;;;;;10.44;64.54;100522.28;5032547;28;20069;-78
2022/05/28 01:52:32;;;;;;;6.93;1.13;;;;;;;10.03;67.57;100525.97;5027781;28;20037;-78
2022/05/28 01:54:59;;;;;;;2.95;0.60;;;;;;;9.72;69.33;100511.13;5030378;28;20044;-78
2022/05/28 01:57:24;;;;;;;1.38;0.40;;;;;;;9.54;70.85;100510.31;5029702;28;20034;-79
2022/05/28 01:59:51;;;;;;;3.80;0.60;;;;;;;9.43;70.94;100497.16;5029646;28;20038;-79
2022/05/28 02:02:17;;;;;;;3.60;0.75;;;;;;;9.38;71.34;100498.06;5027795;28;20527;-78
2022/05/28 02:04:46;;;;;;;5.82;1.10;;;;;;;9.36;72.18;100492.78;5030274;28;20101;-78
2022/05/28 02:07:11;;;;;;;5.10;0.70;;;;;;;9.32;72.14;100485.75;5031454;28;20104;-78
2022/05/28 02:09:42;;;;;;;3.25;0.70;;;;;;;9.29;72.72;100491.03;5030910;28;20075;-78
2022/05/28 02:12:15;;;;;;;3.42;0.75;;;;;;;9.26;72.59;100482.25;5028415;28;20044;-78
2022/05/28 02:15:08;;;;;;;4.68;0.88;;;;;;;9.19;73.26;100484.88;5028944;28;20045;-79
2022/05/28 02:17:40;;;;;;;3.63;0.70;;;;;;;9.13;74.30;100471.72;5029109;28;20043;-79
2022/05/28 02:20:27;;;;;;;3.88;0.88;;;;;;;9.16;73.52;100479.63;5030524;28;20046;-78
2022/05/28 02:23:28;;;;;;;7.63;0.98;;;;;;;9.23;73.43;100474.38;5033426;28;20052;-78
2022/05/28 02:26:07;;;;;;;3.72;0.55;;;;;;;9.35;73.15;100469.97;5030611;28;20140;-77
2022/05/28 02:28:33;;;;;;;4.30;0.90;;;;;;;9.48;72.31;100460.25;5027787;28;20034;-78
2022/05/28 02:31:03;;;;;;;5.30;0.60;;;;;;;9.60;72.11;100460.22;5024499;28;20045;-78
2022/05/28 02:33:30;;;;;;;4.35;0.98;;;;;;;9.72;71.04;100459.31;5028899;28;20034;-78
2022/05/28 02:35:55;;;;;;;5.78;1.08;;;;;;;9.80;70.59;100461.91;5029342;28;20045;-78
2022/05/28 02:38:20;;;;;;;8.23;1.58;;;;;;;9.87;70.02;100459.22;5026976;28;20037;-78
2022/05/28 02:40:46;;;;;;;7.25;1.08;;;;;;;9.90;69.52;100455.69;5026610;28;20045;-78
2022/05/28 02:43:11;;;;;;;8.02;1.27;;;;;;;9.85;69.65;100457.47;5024539;28;20069;-78
2022/05/28 02:45:38;;;;;;;5.00;1.25;;;;;;;9.81;68.85;100450.47;5023733;28;20107;-73
2022/05/28 02:48:03;;;;;;;8.38;1.33;;;;;;;9.74;69.40;100452.25;5020407;28;20547;-73
2022/05/28 02:50:29;;;;;;;8.68;1.80;;;;;;;9.74;69.16;100446.09;5021864;28;20029;-73
2022/05/28 02:52:55;;;;;;;10.98;1.40;;;;;;;9.76;68.79;100449.63;5021155;28;20057;-74
2022/05/28 02:55:21;;;;;;;5.47;1.10;;;;;;;9.72;68.82;100450.50;5024395;28;20048;-75
2022/05/28 02:57:47;;;;;;;6.60;1.33;;;;;;;9.80;67.88;100451.38;5020068;28;20034;-73
2022/05/28 03:00:14;;;;;;;4.47;1.10;;;;;;;9.93;67.81;100453.06;5024236;28;20519;-73
2022/05/28 03:02:41;;;;;;;6.00;1.20;;;;;;;9.93;67.21;100449.53;5023307;28;20026;-73
2022/05/28 03:05:07;;;;;;;7.22;2.05;;;;;;;10.09;66.81;100470.56;5023479;28;20527;-73
2022/05/28 03:07:32;;;;;;;5.18;1.10;;;;;;;10.05;68.06;100479.34;5020479;28;20060;-73
2022/05/28 03:09:58;;;;;;;8.27;1.30;;;;;;;9.87;69.94;100471.53;5023712;28;20611;-73
2022/05/28 03:12:23;;;;;;;4.65;1.15;;;;;;;9.57;73.52;100465.50;5018776;28;20507;-73
2022/05/28 03:14:48;;;;;;;9.25;1.60;;;;;;;9.38;74.15;100448.00;5021126;28;20119;-73
2022/05/28 03:17:14;;;;;;;6.45;0.93;;;;;;;9.20;76.65;100465.59;5023896;28;20033;-73
2022/05/28 03:19:42;;;;;;;5.03;0.82;;;;;;;9.10;77.49;100452.44;5020682;28;20093;-74
2022/05/28 03:22:07;;;;;;;6.47;0.88;;;;;;;9.04;78.30;100448.06;5022927;28;20120;-74
2022/05/28 03:24:32;;;;;;;5.88;0.82;;;;;;;9.11;77.53;100454.19;5029117;28;20068;-73
2022/05/28 03:26:59;;;;;;;5.95;0.90;;;;;;;9.20;76.89;100447.16;5032594;28;20033;-73
2022/05/28 03:29:25;;;;;;;6.35;1.10;;;;;;;9.28;76.22;100452.41;5034095;28;20099;-73
2022/05/28 03:31:50;;;;;;;4.07;0.85;;;;;;;9.33;76.08;100452.41;5032879;28;20041;-73
2022/05/28 03:34:16;;;;;;;6.20;1.38;;;;;;;9.36;76.05;100455.03;5032749;28;20093;-74
2022/05/28 03:36:41;;;;;;;5.55;1.13;;;;;;;9.46;76.11;100459.41;5033270;28;20068;-73
2022/05/28 03:39:07;;;;;;;3.10;0.80;;;;;;;9.50;76.09;100453.22;5033065;28;20029;-73
2022/05/28 03:41:33;;;;;;;5.57;1.00;;;;;;;9.53;76.24;100453.22;5030028;28;20052;-73
2022/05/28 03:43:59;;;;;;;7.45;1.00;;;;;;;9.51;77.30;100455.00;5033128;28;20033;-74
2022/05/28 03:46:31;;;;;;;8.23;1.30;;;;;;;9.46;78.58;100474.28;5026820;28;20033;-73
2022/05/28 03:49:01;;;;;;;4.22;0.93;;;;;;;9.43;78.48;100462.00;5024648;28;20499;-73
2022/05/28 03:51:27;;;;;;;4.07;1.02;;;;;;;9.42;79.07;100463.78;5026088;28;20041;-73
2022/05/28 03:53:53;;;;;;;8.10;1.77;;;;;;;9.46;79.82;100464.66;5025908;28;20381;-73
2022/05/28 03:56:20;;;;;;;5.45;1.20;;;;;;;9.54;80.41;100465.53;5026156;28;20072;-73
2022/05/28 03:58:45;;;;;;;5.70;1.20;;;;;;;9.56;80.14;100471.66;5024364;28;20412;-74
2022/05/28 04:01:10;;;;;;;5.78;1.08;;;;;;;9.51;79.92;100472.53;5022087;28;20034;-74
2022/05/28 04:03:36;;;;;;;4.78;1.08;;;;;;;9.46;80.33;100480.47;5023533;28;20056;-73
2022/05/28 04:06:03;;;;;;;7.40;1.70;;;;;;;9.47;80.32;100483.97;5026438;28;20037;-73
2022/05/28 04:08:29;;;;;;;4.53;1.30;;;;;;;9.33;79.93;100481.38;5023009;28;20041;-73
2022/05/28 04:10:54;;;;;;;6.90;1.70;;;;;;;9.31;78.90;100478.75;5024531;28;20180;-74
2022/05/28 04:13:20;;;;;;;9.02;1.85;;;;;;;9.28;78.37;100498.94;5026738;28;20033;-74
2022/05/28 04:15:48;;;;;;;3.85;0.98;;;;;;;9.26;78.09;100482.25;5025563;28;20034;-73
2022/05/28 04:18:13;;;;;;;11.82;1.88;;;;;;;9.23;77.38;100477.00;5026743;28;20112;-73
2022/05/28 04:20:38;;;;;;;6.57;1.08;;;;;;;9.16;78.07;100476.13;5026907;28;20558;-73
2022/05/28 04:23:04;;;;;;;4.93;0.95;;;;;;;9.05;76.89;100486.66;5029333;28;20033;-73
2022/05/28 04:25:29;;;;;;;3.97;1.10;;;;;;;8.98;77.67;100472.63;5027559;28;20037;-73
2022/05/28 04:27:54;;;;;;;4.13;1.00;;;;;;;8.98;78.02;100464.72;5027202;28;20038;-73
2022/05/28 04:30:20;;;;;;;3.53;0.93;;;;;;;9.08;77.30;100470.00;5021930;28;20048;-74
2022/05/28 04:32:45;;;;;;;4.95;0.85;;;;;;;9.03;76.62;100483.16;5026171;28;20041;-73
2022/05/28 04:35:10;;;;;;;4.35;1.00;;;;;;;9.19;76.60;100465.56;5025603;28;20120;-72
2022/05/28 04:37:36;;;;;;;4.70;1.00;;;;;;;9.27;75.09;100478.75;5020843;28;20069;-74
2022/05/28 04:40:02;;;;;;;2.55;0.63;;;;;;;9.36;74.81;100471.72;5023532;28;20057;-73
2022/05/28 04:42:27;;;;;;;4.38;0.60;;;;;;;9.39;74.24;100478.72;5023198;28;20511;-74
2022/05/28 04:44:53;;;;;;;4.57;0.70;;;;;;;9.50;74.21;100463.75;5023189;28;20034;-73
2022/05/28 04:47:18;;;;;;;2.25;0.70;;;;;;;9.48;73.17;100477.81;5024396;28;20080;-73
2022/05/28 04:49:44;;;;;;;7.05;0.85;;;;;;;9.50;73.73;100465.53;5021966;28;20447;-73
2022/05/28 04:52:09;;;;;;;1.83;0.68;;;;;;;9.57;74.51;100462.88;5025062;28;20412;-73
2022/05/28 04:54:34;;;;;;;1.65;0.63;;;;;;;9.57;74.65;100468.13;5022067;28;20523;-73
2022/05/28 04:57:00;;;;;;;3.90;1.00;;;;;;;9.68;73.26;100472.50;5024020;28;20549;-74
2022/05/28 04:59:25;;;;;;;6.10;0.88;;;;;;;9.60;74.11;100461.97;5021091;28;20520;-73
2022/05/28 05:01:50;;;;;;;3.13;0.52;;;;;;;9.62;74.45;100453.19;5023576;28;20470;-73
2022/05/28 05:04:16;;;;;;;3.78;0.60;;;;;;;9.61;74.90;100456.69;5022043;28;20076;-74
2022/05/28 05:06:41;;;;;;;4.20;0.70;;;;;;;9.67;73.97;100450.53;5027788;28;20041;-73
2022/05/28 05:09:06;;;;;;;3.92;0.50;;;;;;;9.74;73.99;100440.84;5026696;28;20662;-73
2022/05/28 05:11:32;;;;;;;2.17;0.47;;;;;;;9.74;73.82;100456.66;5020990;28;20108;-73
2022/05/28 05:13:57;;;;;;;6.05;0.70;;;;;;;9.78;73.82;100461.03;5023503;28;20065;-73
2022/05/28 05:16:23;;;;;;;3.15;0.50;;;;;;;9.82;74.31;100465.41;5025410;28;20025;-73
2022/05/28 05:18:48;;;;;;;4.95;0.60;;;;;;;9.86;74.52;100448.69;5024739;28;20073;-73
2022/05/28 05:21:14;;;;;;;3.70;0.70;;;;;;;9.93;74.22;100449.53;5029933;28;20033;-73
2022/05/28 05:23:40;;;;;;;4.30;0.70;;;;;;;9.95;73.83;100461.81;5022735;28;20038;-74
2022/05/28 05:26:13;;;;;;;4.60;0.95;;;;;;;9.88;74.41;100452.22;5025945;28;20111;-73
2022/05/28 05:28:38;;;;;;;3.53;0.65;;;;;;;9.76;75.12;100458.41;5025132;28;20056;-73
2022/05/28 05:31:03;;;;;;;3.75;0.70;;;;;;;9.65;75.41;100474.25;5030322;28;20033;-74
2022/05/28 05:33:29;;;;;;;4.22;0.60;;;;;;;9.60;75.03;100457.59;5020499;28;20033;-73
2022/05/28 05:35:54;;;;;;;5.88;0.50;;;;;;;9.62;74.91;100461.09;5023119;28;20041;-73
2022/05/28 05:38:19;;;;;;;3.38;0.95;;;;;;;9.79;73.78;100455.75;5023589;28;20033;-74
2022/05/28 05:40:45;;;;;;;3.00;0.70;;;;;;;9.90;73.13;100468.00;5023731;28;20444;-73
2022/05/28 05:43:10;;;;;;;3.03;0.60;;;;;;;9.96;72.68;100463.59;5022259;28;20495;-73
2022/05/28 05:45:35;;;;;;;3.30;0.82;;;;;;;9.99;71.44;100463.56;5027440;28;20160;-74
2022/05/28 05:48:01;;;;;;;4.82;0.80;;;;;;;10.22;70.74;100465.22;5025198;28;20566;-73
2022/05/28 05:50:26;;;;;;;2.50;0.98;;;;;;;10.28;70.63;100459.94;5020630;28;20065;-74
2022/05/28 05:52:51;;;;;;;5.22;0.75;;;;;;;10.47;70.64;100448.38;5024435;28;20049;-74
2022/05/28 05:55:17;;;;;;;4.28;0.70;;;;;;;10.63;69.68;100470.25;5027122;28;20041;-73
2022/05/28 05:57:42;;;;;;;4.57;0.90;;;;;;;10.79;69.06;100473.63;5027244;28;20129;-73
2022/05/28 06:00:09;;;;;;;4.57;1.10;;;;;;;11.03;68.63;100461.13;5026641;28;20052;-74
2022/05/28 06:02:35;;;;;;;3.88;0.88;;;;;;;11.21;68.38;100460.94;5017229;28;20045;-73
2022/05/28 06:05:00;;;;;;;3.92;0.70;;;;;;;11.13;68.35;100446.94;5019579;28;20029;-73
2022/05/28 06:07:26;;;;;;;4.25;0.60;;;;;;;11.13;68.77;100474.25;5022008;28;20053;-74
2022/05/28 06:09:51;;;;;;;3.92;0.82;;;;;;;10.97;67.39;100457.63;5025909;28;20064;-74
2022/05/28 06:12:17;;;;;;;4.47;0.70;;;;;;;11.07;67.08;100460.22;5018584;28;20030;-73
2022/05/28 06:14:42;;;;;;;4.70;1.02;;;;;;;11.19;66.77;100476.81;5020879;28;20050;-74
2022/05/28 06:17:08;;;;;;;5.57;1.40;;;;;;;11.24;65.41;100470.59;5023198;28;20052;-74
2022/05/28 06:19:33;;;;;;;7.85;1.10;;;;;;;11.34;65.89;100467.88;5027179;28;20037;-74
2022/05/28 06:22:00;;;;;;;5.60;1.00;;;;;;;11.58;64.83;100465.84;5027846;28;20025;-74
2022/05/28 06:24:26;;;;;;;5.32;0.77;;;;;;;11.37;64.75;100478.41;5025498;28;20034;-73
2022/05/28 06:26:51;;;;;;;5.53;0.90;;;;;;;11.36;65.81;100452.00;5021054;28;20037;-74
2022/05/28 06:29:18;;;;;;;3.95;0.68;;;;;;;11.65;65.48;100469.31;5021352;28;20053;-74
2022/05/28 06:31:43;;;;;;;4.10;0.77;;;;;;;11.66;65.17;100466.66;5020915;28;20038;-74
2022/05/28 06:34:08;;;;;;;5.72;0.90;;;;;;;11.54;65.42;100465.00;5022945;28;20037;-73
2022/05/28 06:36:34;;;;;;;3.38;1.00;;;;;;;11.38;65.91;100469.59;5020343;28;20042;-73
2022/05/28 06:38:59;;;;;;;5.47;1.00;;;;;;;11.45;65.17;100470.41;5022460;28;20041;-73
2022/05/28 06:41:25;;;;;;;6.00;1.02;;;;;;;11.61;65.11;100461.41;5020482;28;20034;-73
2022/05/28 06:43:51;;;;;;;4.90;1.15;;;;;;;11.78;64.35;100471.78;5022532;28;20442;-74
2022/05/28 06:46:17;;;;;;;7.03;1.30;;;;;;;11.93;64.12;100454.00;5019420;28;20035;-73
2022/05/28 06:48:42;;;;;;;9.13;1.15;;;;;;;11.90;62.36;100447.00;5022673;28;20021;-73
2022/05/28 06:51:08;;;;;;;7.30;1.50;;;;;;;11.77;63.21;100456.81;5022382;28;20486;-73
2022/05/28 06:53:47;;;;;;;5.28;0.90;;;;;;;11.92;62.70;100457.53;5024104;28;20444;-74
2022/05/28 06:56:13;;;;;;;7.45;1.10;;;;;;;11.71;62.77;100472.75;5024155;28;20116;-73
2022/05/28 06:58:39;;;;;;;7.90;1.42;;;;;;;11.61;63.52;100456.13;5021137;28;20116;-74
2022/05/28 07:01:07;;;;;;;7.25;1.00;;;;;;;12.15;62.85;100452.81;5019056;28;20037;-73
2022/05/28 07:03:33;;;;;;;5.25;1.48;;;;;;;12.38;61.31;100433.97;5021865;28;20112;-73
2022/05/28 07:05:59;;;;;;;7.70;1.33;;;;;;;12.39;60.84;100453.34;5025709;28;20448;-74
2022/05/28 07:08:25;;;;;;;6.03;1.25;;;;;;;12.46;60.54;100476.19;5021576;28;20029;-73
2022/05/28 07:10:53;;;;;;;5.53;0.90;;;;;;;12.51;59.98;100458.47;5022842;28;20042;-73
2022/05/28 07:13:20;;;;;;;9.60;1.23;;;;;;;12.26;60.86;100455.31;5019451;28;20076;-73
2022/05/28 07:15:46;;;;;;;8.40;1.33;;;;;;;12.22;61.13;100480.94;5024239;28;20152;-73
2022/05/28 07:18:12;;;;;;;5.15;1.27;;;;;;;12.09;61.29;100458.19;5020776;28;20034;-73
2022/05/28 07:20:37;;;;;;;5.45;1.20;;;;;;;11.91;60.71;100456.66;5021566;28;20377;-73
2022/05/28 07:23:10;;;;;;;6.15;1.80;;;;;;;11.77;62.46;100470.03;5018087;28;20451;-73
2022/05/28 07:25:36;;;;;;;6.78;1.60;;;;;;;11.66;61.88;100477.22;5019940;28;20026;-73
2022/05/28 07:28:24;;;;;;;6.93;1.70;;;;;;;11.73;61.58;100472.72;5021193;28;20044;-73
2022/05/28 07:30:46;;;;;;;10.13;1.80;;;;;;;11.97;60.70;100468.94;5019727;28;20125;-73
2022/05/28 07:33:11;;;;;;;7.85;1.20;;;;;;;11.92;60.78;100466.38;5020818;28;20077;-73
2022/05/28 07:35:37;;;;;;;8.35;1.23;;;;;;;12.15;60.22;100452.81;5020979;28;20070;-73
2022/05/28 07:38:02;;;;;;;6.07;1.30;;;;;;;12.47;60.15;100472.63;5019944;28;20081;-73
2022/05/28 07:40:27;;;;;;;10.15;2.00;;;;;;;12.90;57.65;100448.16;5022142;28;20077;-73
2022/05/28 07:42:53;;;;;;;6.57;1.40;;;;;;;12.93;56.96;100443.66;5018966;28;20076;-73
2022/05/28 07:45:18;;;;;;;5.03;1.13;;;;;;;12.77;57.11;100468.66;5022871;28;20032;-74
2022/05/28 07:47:43;;;;;;;5.30;1.40;;;;;;;12.45;58.02;100446.22;5020204;28;20034;-74
2022/05/28 07:50:09;;;;;;;5.90;1.35;;;;;;;12.38;59.63;100464.84;5020211;28;20095;-73
2022/05/28 07:52:34;;;;;;;9.18;1.75;;;;;;;11.68;64.69;100458.69;5020940;28;20037;-74
2022/05/28 07:54:59;;;;;;;8.32;1.77;;;;;;;10.88;69.70;100478.84;5019560;28;20411;-75
2022/05/28 07:57:25;;;;;;;6.75;1.52;;;;;;;10.57;73.82;100487.91;5018702;28;20536;-75
2022/05/28 07:59:50;;;;;;;7.38;1.67;;;;;;;10.52;75.93;100502.00;5023779;28;20049;-75
2022/05/28 08:02:15;;;;;;;7.35;1.70;;;;;;;10.62;73.65;100491.38;5021412;28;20044;-75
2022/05/28 08:04:41;;;;;;;13.32;2.10;;;;;;;10.85;72.65;100483.31;5020899;28;20116;-75
2022/05/28 08:07:06;;;;;;;6.40;1.25;;;;;;;11.48;72.43;100474.78;5020573;28;20050;-75
2022/05/28 08:09:31;;;;;;;10.82;1.92;;;;;;;12.11;70.81;100469.63;5023599;28;20120;-75
2022/05/28 08:11:56;;;;;;;7.53;1.45;;;;;;;12.38;65.92;100481.59;5021343;28;20124;-75
2022/05/28 08:14:22;;;;;;;6.68;1.67;;;;;;;12.58;65.35;100461.91;5021847;28;20076;-75
2022/05/28 08:16:47;;;;;;;10.60;1.63;;;;;;;12.53;62.09;100488.47;5025218;28;20061;-75
2022/05/28 08:19:13;;;;;;;5.43;1.25;;;;;;;12.39;60.94;100485.13;5022949;28;20072;-75
2022/05/28 08:24:22;;;;;;;6.72;1.25;;;;;;;12.65;59.87;100475.03;5022882;28;20038;-74
2022/05/28 08:26:47;;;;;;;4.85;1.27;;;;;;;12.49;58.44;100479.66;5024173;28;20083;-75
2022/05/28 08:29:13;;;;;;;11.82;1.77;;;;;;;12.56;58.32;100480.47;5023059;28;20037;-75
2022/05/28 08:31:38;;;;;;;6.53;1.42;;;;;;;12.64;58.93;100493.59;5028030;28;20401;-74
2022/05/28 08:34:03;;;;;;;7.00;1.25;;;;;;;12.91;57.39;100484.31;5027176;28;20033;-74
2022/05/28 08:36:29;;;;;;;8.65;1.52;;;;;;;12.92;56.30;100472.84;5023397;28;20033;-75
2022/05/28 08:38:54;;;;;;;8.20;1.60;;;;;;;13.28;55.53;100496.97;5029920;28;20068;-75
2022/05/28 08:41:34;;;;;;;7.32;1.50;;;;;;;13.51;54.75;100518.63;5027181;28;20060;-74
2022/05/28 08:44:12;;;;;;;8.90;1.58;;;;;;;13.51;54.19;100476.22;5031164;28;20034;-74
2022/05/28 08:46:38;;;;;;;8.57;2.08;;;;;;;13.48;53.88;100489.53;5027942;28;20048;-74
2022/05/28 08:49:06;;;;;;;6.25;1.40;;;;;;;13.37;54.16;100486.22;5025305;28;20512;-74
2022/05/28 08:51:56;;;;;;;6.90;1.13;;;;;;;13.20;54.99;100473.22;5021346;28;20046;-74
2022/05/28 08:54:36;;;;;;;8.32;1.42;;;;;;;13.00;55.15;100481.53;5021270;28;20034;-74
2022/05/28 08:57:11;;;;;;;8.48;1.58;;;;;;;12.80;56.75;100492.44;5022353;28;20049;-74
2022/05/28 08:59:46;;;;;;;7.72;1.48;;;;;;;12.69;56.24;100489.97;5016946;28;21165;-73
2022/05/28 09:02:20;;;;;;;6.13;1.35;;;;;;;12.71;56.14;100514.66;5021828;28;20518;-74
2022/05/28 09:04:47;;;;;;;5.90;1.63;;;;;;;12.98;56.24;100514.25;5024927;28;20449;-74
2022/05/28 09:07:14;;;;;;;10.32;1.77;;;;;;;13.06;54.78;100497.31;5025012;28;20502;-74
2022/05/28 09:09:53;;;;;;;9.23;1.60;;;;;;;13.34;54.47;100503.03;5024462;28;20029;-74
2022/05/28 09:12:27;;;;;;;7.45;1.50;;;;;;;13.44;53.72;100493.16;5022325;28;20057;-74
2022/05/28 09:14:53;;;;;;;9.05;1.70;;;;;;;13.57;53.68;100501.72;5025346;28;20030;-74
2022/05/28 09:17:32;;;;;;;7.13;1.10;;;;;;;13.70;52.94;100507.69;5028788;28;20037;-74
2022/05/28 09:20:09;;;;;;;9.15;1.30;;;;;;;13.87;51.32;100516.19;5025935;28;20496;-74
2022/05/28 09:22:35;;;;;;;7.75;1.65;;;;;;;13.93;52.49;100502.78;5021250;28;20034;-74
2022/05/28 09:25:00;;;;;;;7.25;1.42;;;;;;;14.19;52.25;100478.34;5023742;28;20040;-74
2022/05/28 09:27:32;;;;;;;6.65;1.20;;;;;;;14.34;51.56;100481.59;5017410;28;20068;-74
2022/05/28 09:30:07;;;;;;;4.97;1.13;;;;;;;14.26;50.10;100510.97;5023226;28;20076;-74
2022/05/28 09:32:47;;;;;;;7.22;1.30;;;;;;;14.27;50.38;100496.78;5020264;28;20037;-74
2022/05/28 09:35:44;;;;;;;13.75;1.90;;;;;;;14.50;50.42;100498.91;5022838;28;20411;-74
2022/05/28 09:38:19;;;;;;;7.45;1.65;;;;;;;14.48;50.34;100490.97;5020725;28;20038;-73
2022/05/28 09:40:58;;;;;;;7.93;1.50;;;;;;;14.46;49.41;100487.50;5020374;28;20034;-74
2022/05/28 09:43:34;;;;;;;4.45;1.08;;;;;;;14.19;50.01;100466.88;5035463;28;20416;-74
2022/05/28 09:46:37;;;;;;;6.43;1.15;;;;;;;13.78;50.31;100482.78;5020004;28;20124;-74
2022/05/28 09:49:10;;;;;;;7.05;1.33;;;;;;;13.84;50.74;100481.78;5019982;28;20446;-74
2022/05/28 09:51:36;;;;;;;6.10;1.40;;;;;;;14.18;50.58;100475.75;5022672;28;20037;-74
2022/05/28 09:54:16;;;;;;;5.63;1.40;;;;;;;14.20;49.84;100485.44;5020633;28;20033;-75
2022/05/28 09:56:44;;;;;;;9.55;2.00;;;;;;;14.37;50.00;100478.88;5021797;28;20404;-75
2022/05/28 09:59:27;;;;;;;9.63;1.90;;;;;;;14.84;48.17;100487.53;5020979;28;20037;-75
2022/05/28 10:02:15;;;;;;;6.45;1.50;;;;;;;14.78;48.50;100454.03;5022244;28;20025;-75
2022/05/28 10:04:56;;;;;;;8.30;1.88;;;;;;;14.68;48.03;100465.78;5021805;28;20030;-75
2022/05/28 10:07:35;;;;;;;8.82;1.30;;;;;;;14.80;47.97;100468.16;5020095;28;20112;-75
2022/05/28 10:10:10;;;;;;;7.60;1.67;;;;;;;14.81;48.05;100461.91;5023136;28;20060;-74
2022/05/28 10:12:35;;;;;;;9.23;1.92;;;;;;;14.82;47.84;100466.31;5021002;28;20173;-74
2022/05/28 10:15:11;;;;;;;6.53;1.60;;;;;;;15.15;47.96;100477.00;5018773;28;20057;-75
2022/05/28 10:17:38;;;;;;;7.32;1.77;;;;;;;14.98;47.01;100485.41;5023253;28;20048;-75
2022/05/28 10:20:15;;;;;;;4.72;1.15;;;;;;;14.97;45.94;100496.09;5020457;28;20463;-75
2022/05/28 10:22:40;;;;;;;5.22;1.45;;;;;;;14.61;47.74;100490.72;5019735;28;20051;-75
2022/05/28 10:25:22;;;;;;;5.53;1.40;;;;;;;14.59;47.99;100513.78;5023690;28;20480;-75
2022/05/28 10:27:50;;;;;;;6.95;1.60;;;;;;;14.81;47.58;100480.50;5022312;28;20067;-75
2022/05/28 10:30:29;;;;;;;6.25;1.25;;;;;;;14.88;47.68;100492.75;5022675;28;20037;-75
2022/05/28 10:32:55;;;;;;;8.80;1.33;;;;;;;15.00;47.31;100483.59;5025015;28;20029;-75
2022/05/28 10:35:27;;;;;;;5.50;1.80;;;;;;;15.11;46.83;100493.94;5020792;28;20095;-75
2022/05/28 10:37:53;;;;;;;7.72;1.75;;;;;;;15.11;46.52;100465.56;5023268;28;20037;-75
2022/05/28 10:40:24;;;;;;;5.90;1.30;;;;;;;15.31;48.28;100462.41;5020545;28;20081;-75
2022/05/28 10:42:58;;;;;;;7.28;1.20;;;;;;;15.66;46.69;100454.34;5020955;28;20041;-75
2022/05/28 10:45:30;;;;;;;6.60;1.50;;;;;;;15.84;44.71;100467.16;5016284;28;20030;-78
2022/05/28 10:48:16;;;;;;;8.98;1.65;;;;;;;15.91;44.35;100452.78;5023592;28;20029;-75
2022/05/28 10:50:59;;;;;;;6.95;1.67;;;;;;;15.93;45.40;100440.31;5026952;28;20029;-75
2022/05/28 10:53:49;;;;;;;7.10;1.50;;;;;;;16.28;45.47;100445.47;5017479;28;20030;-75
2022/05/28 10:56:41;;;;;;;4.60;1.20;;;;;;;16.84;43.27;100424.13;5029098;28;20029;-75
2022/05/28 10:59:44;;;;;;;7.32;1.30;;;;;;;17.18;42.17;100422.97;5024739;28;20081;-75
2022/05/28 11:02:31;;;;;;;9.65;1.52;;;;;;;16.21;42.53;100439.44;5023734;28;20037;-75
2022/05/28 11:05:05;;;;;;;6.65;1.58;;;;;;;15.22;44.85;100477.72;5026713;28;20042;-75
2022/05/28 11:07:56;;;;;;;4.03;1.00;;;;;;;15.39;45.53;100450.69;5025412;28;20040;-75
2022/05/28 11:10:22;;;;;;;6.00;1.10;;;;;;;15.77;46.10;100452.28;5026805;28;20143;-75
2022/05/28 11:13:01;;;;;;;5.93;1.48;;;;;;;15.78;45.82;100444.28;5027519;28;20120;-75
2022/05/28 11:15:37;;;;;;;4.15;1.38;;;;;;;15.80;45.95;100451.31;5024069;28;20045;-75
2022/05/28 11:18:20;;;;;;;3.40;1.20;;;;;;;16.24;45.32;100451.78;5028085;28;20492;-76
2022/05/28 11:20:57;;;;;;;9.50;1.50;;;;;;;16.50;42.64;100497.13;5030575;28;20033;-76
2022/05/28 11:23:51;;;;;;;5.95;1.20;;;;;;;16.24;43.51;100441.16;5029056;28;20052;-75
2022/05/28 11:26:32;;;;;;;7.90;1.52;;;;;;;16.56;43.86;100453.47;5022914;28;20045;-75
2022/05/28 11:29:33;;;;;;;5.65;1.80;;;;;;;16.67;41.04;100482.44;5021759;28;20480;-75
2022/05/28 11:32:05;;;;;;;7.45;1.20;;;;;;;16.79;40.61;100461.63;5022466;28;20033;-76
2022/05/28 11:34:40;;;;;;;5.47;1.10;;;;;;;16.59;39.44;100454.22;5021048;28;20400;-75
2022/05/28 11:37:29;;;;;;;7.00;1.02;;;;;;;16.55;40.04;100459.69;5019293;28;20049;-75
2022/05/28 11:40:03;;;;;;;5.40;1.10;;;;;;;16.53;39.50;100473.09;5019376;28;20042;-75